sensor_id;sensor_type;location;lat;lon;timestamp;pressure;altitude;pressure_sealevel;temperature;humidity
80149;BME280;69473;42.426;26.644;2024-01-15T00:02:06;98631.66;;;-2.44;82.72
80149;BME280;69473;42.426;26.644;2024-01-15T00:04:37;98636.59;;;-2.47;82.43
80149;BME280;69473;42.426;26.644;2024-01-15T00:07:03;98628.16;;;-2.46;82.78
80149;BME280;69473;42.426;26.644;2024-01-15T00:09:28;98628.03;;;-2.49;82.80
80149;BME280;69473;42.426;26.644;2024-01-15T00:11:54;98629.78;;;-2.48;83.03
80149;BME280;69473;42.426;26.644;2024-01-15T00:14:19;98621.22;;;-2.50;83.32
80149;BME280;69473;42.426;26.644;2024-01-15T00:16:46;98631.06;;;-2.58;83.78
80149;BME280;69473;42.426;26.644;2024-01-15T00:19:12;98625.91;;;-2.60;83.93
80149;BME280;69473;42.426;26.644;2024-01-15T00:21:38;98629.31;;;-2.59;83.95
80149;BME280;69473;42.426;26.644;2024-01-15T00:24:03;98636.06;;;-2.60;84.24
80149;BME280;69473;42.426;26.644;2024-01-15T00:26:29;98633.53;;;-2.60;84.33
80149;BME280;69473;42.426;26.644;2024-01-15T00:28:54;98627.63;;;-2.59;84.44
80149;BME280;69473;42.426;26.644;2024-01-15T00:31:20;98625.19;;;-2.57;84.41
80149;BME280;69473;42.426;26.644;2024-01-15T00:33:46;98622.56;;;-2.59;84.26
80149;BME280;69473;42.426;26.644;2024-01-15T00:36:11;98622.66;;;-2.57;84.22
80149;BME280;69473;42.426;26.644;2024-01-15T00:38:37;98624.19;;;-2.61;84.87
80149;BME280;69473;42.426;26.644;2024-01-15T00:41:03;98622.47;;;-2.62;84.30
80149;BME280;69473;42.426;26.644;2024-01-15T00:43:28;98625.72;;;-2.64;84.69
80149;BME280;69473;42.426;26.644;2024-01-15T00:45:54;98621.16;;;-2.71;84.78
80149;BME280;69473;42.426;26.644;2024-01-15T00:48:19;98628.59;;;-2.76;84.66
80149;BME280;69473;42.426;26.644;2024-01-15T00:50:45;98621.53;;;-2.83;84.75
80149;BME280;69473;42.426;26.644;2024-01-15T00:53:10;98621.53;;;-2.83;84.67
80149;BME280;69473;42.426;26.644;2024-01-15T00:55:36;98621.53;;;-2.83;84.40
80149;BME280;69473;42.426;26.644;2024-01-15T00:58:03;98627.91;;;-2.91;84.22
80149;BME280;69473;42.426;26.644;2024-01-15T01:00:29;98631.25;;;-2.92;84.84
80149;BME280;69473;42.426;26.644;2024-01-15T01:02:54;98624.53;;;-2.92;84.71
80149;BME280;69473;42.426;26.644;2024-01-15T01:05:20;98621.13;;;-2.92;84.96
80149;BME280;69473;42.426;26.644;2024-01-15T01:07:45;98619.84;;;-3.02;84.11
80149;BME280;69473;42.426;26.644;2024-01-15T01:10:11;98626.28;;;-3.09;84.36
80149;BME280;69473;42.426;26.644;2024-01-15T01:12:37;98624.03;;;-3.03;85.34
80149;BME280;69473;42.426;26.644;2024-01-15T01:15:02;98621.13;;;-2.92;86.28
80149;BME280;69473;42.426;26.644;2024-01-15T01:17:28;98616.19;;;-2.89;86.28
80149;BME280;69473;42.426;26.644;2024-01-15T01:19:54;98624.69;;;-2.87;86.84
80149;BME280;69473;42.426;26.644;2024-01-15T01:22:19;98619.09;;;-2.99;86.26
80149;BME280;69473;42.426;26.644;2024-01-15T01:24:45;98615.22;;;-3.11;85.94
80149;BME280;69473;42.426;26.644;2024-01-15T01:27:10;98616.81;;;-3.13;85.81
80149;BME280;69473;42.426;26.644;2024-01-15T01:29:36;98613.88;;;-3.03;86.67
80149;BME280;69473;42.426;26.644;2024-01-15T01:32:01;98615.16;;;-2.93;87.21
80149;BME280;69473;42.426;26.644;2024-01-15T01:34:27;98619.78;;;-2.84;87.28
80149;BME280;69473;42.426;26.644;2024-01-15T01:36:53;98609.91;;;-2.78;87.80
80149;BME280;69473;42.426;26.644;2024-01-15T01:39:18;98617.72;;;-2.73;88.03
80149;BME280;69473;42.426;26.644;2024-01-15T01:41:44;98616.72;;;-2.77;88.60
80149;BME280;69473;42.426;26.644;2024-01-15T01:44:09;98614.25;;;-2.75;88.67
80149;BME280;69473;42.426;26.644;2024-01-15T01:46:36;98612.06;;;-2.68;88.93
80149;BME280;69473;42.426;26.644;2024-01-15T01:49:07;98607.75;;;-2.69;88.81
80149;BME280;69473;42.426;26.644;2024-01-15T01:51:35;98600.03;;;-2.72;89.26
80149;BME280;69473;42.426;26.644;2024-01-15T01:54:04;98605.22;;;-2.69;89.18
80149;BME280;69473;42.426;26.644;2024-01-15T01:56:30;98595.22;;;-2.66;89.47
80149;BME280;69473;42.426;26.644;2024-01-15T01:58:56;98593.53;;;-2.65;89.36
80149;BME280;69473;42.426;26.644;2024-01-15T02:01:22;98590.13;;;-2.66;89.47
80149;BME280;69473;42.426;26.644;2024-01-15T02:03:48;98586.19;;;-2.59;89.42
80149;BME280;69473;42.426;26.644;2024-01-15T02:06:14;98593.88;;;-2.58;89.77
80149;BME280;69473;42.426;26.644;2024-01-15T02:08:43;98591.91;;;-2.65;90.07
80149;BME280;69473;42.426;26.644;2024-01-15T02:11:09;98586.44;;;-2.74;89.34
80149;BME280;69473;42.426;26.644;2024-01-15T02:13:35;98588.63;;;-2.82;89.51
80149;BME280;69473;42.426;26.644;2024-01-15T02:16:01;98580.75;;;-2.88;89.05
80149;BME280;69473;42.426;26.644;2024-01-15T02:18:26;98588.81;;;-2.96;88.15
80149;BME280;69473;42.426;26.644;2024-01-15T02:20:52;98572.16;;;-3.11;87.10
80149;BME280;69473;42.426;26.644;2024-01-15T02:23:17;98582.28;;;-3.30;86.10
80149;BME280;69473;42.426;26.644;2024-01-15T02:25:45;98576.50;;;-3.45;85.15
80149;BME280;69473;42.426;26.644;2024-01-15T02:28:13;98562.63;;;-3.54;85.55
80149;BME280;69473;42.426;26.644;2024-01-15T02:30:41;98560.88;;;-3.55;84.91
80149;BME280;69473;42.426;26.644;2024-01-15T02:33:08;98567.53;;;-3.57;84.74
80149;BME280;69473;42.426;26.644;2024-01-15T02:35:34;98565.66;;;-3.61;84.83
80149;BME280;69473;42.426;26.644;2024-01-15T02:38:04;98568.13;;;-3.62;84.64
80149;BME280;69473;42.426;26.644;2024-01-15T02:40:30;98569.25;;;-3.56;84.54
80149;BME280;69473;42.426;26.644;2024-01-15T02:42:55;98563.63;;;-3.68;83.74
80149;BME280;69473;42.426;26.644;2024-01-15T02:45:22;98561.84;;;-3.70;85.23
80149;BME280;69473;42.426;26.644;2024-01-15T02:47:47;98567.25;;;-3.63;85.03
80149;BME280;69473;42.426;26.644;2024-01-15T02:50:13;98559.47;;;-3.67;84.05
80149;BME280;69473;42.426;26.644;2024-01-15T02:52:39;98563.50;;;-3.71;84.31
80149;BME280;69473;42.426;26.644;2024-01-15T02:55:05;98555.75;;;-3.74;84.19
80149;BME280;69473;42.426;26.644;2024-01-15T02:57:31;98546.13;;;-3.63;84.33
80149;BME280;69473;42.426;26.644;2024-01-15T02:59:57;98550.63;;;-3.58;84.61
80149;BME280;69473;42.426;26.644;2024-01-15T03:02:22;98539.72;;;-3.55;84.62
80149;BME280;69473;42.426;26.644;2024-01-15T03:04:48;98547.94;;;-3.61;84.25
80149;BME280;69473;42.426;26.644;2024-01-15T03:07:13;98543.38;;;-3.68;84.35
80149;BME280;69473;42.426;26.644;2024-01-15T03:09:39;98544.00;;;-3.74;84.46
80149;BME280;69473;42.426;26.644;2024-01-15T03:12:05;98541.59;;;-3.70;85.07
80149;BME280;69473;42.426;26.644;2024-01-15T03:14:31;98545.28;;;-3.64;84.94
80149;BME280;69473;42.426;26.644;2024-01-15T03:16:56;98535.28;;;-3.61;84.75
80149;BME280;69473;42.426;26.644;2024-01-15T03:19:22;98531.66;;;-3.66;84.04
80149;BME280;69473;42.426;26.644;2024-01-15T03:21:47;98524.44;;;-3.76;84.27
80149;BME280;69473;42.426;26.644;2024-01-15T03:24:13;98522.56;;;-3.80;84.12
80149;BME280;69473;42.426;26.644;2024-01-15T03:26:39;98520.97;;;-3.78;83.47
80149;BME280;69473;42.426;26.644;2024-01-15T03:29:04;98526.47;;;-3.87;83.93
80149;BME280;69473;42.426;26.644;2024-01-15T03:31:30;98528.94;;;-3.88;84.06
80149;BME280;69473;42.426;26.644;2024-01-15T03:33:56;98527.28;;;-3.88;84.02
80149;BME280;69473;42.426;26.644;2024-01-15T03:36:21;98526.47;;;-3.87;83.88
80149;BME280;69473;42.426;26.644;2024-01-15T03:38:47;98519.69;;;-3.88;83.54
80149;BME280;69473;42.426;26.644;2024-01-15T03:41:13;98515.34;;;-3.90;83.93
80149;BME280;69473;42.426;26.644;2024-01-15T03:43:38;98526.94;;;-3.96;83.38
80149;BME280;69473;42.426;26.644;2024-01-15T03:46:05;98525.84;;;-4.01;82.55
80149;BME280;69473;42.426;26.644;2024-01-15T03:48:31;98529.66;;;-4.09;83.07
80149;BME280;69473;42.426;26.644;2024-01-15T03:50:57;98538.50;;;-4.01;83.63
80149;BME280;69473;42.426;26.644;2024-01-15T03:53:22;98529.19;;;-4.02;83.51
80149;BME280;69473;42.426;26.644;2024-01-15T03:55:49;98528.66;;;-3.95;83.91
80149;BME280;69473;42.426;26.644;2024-01-15T03:58:14;98523.88;;;-3.88;84.32
80149;BME280;69473;42.426;26.644;2024-01-15T04:00:40;98529.22;;;-3.82;84.08
80149;BME280;69473;42.426;26.644;2024-01-15T04:03:06;98526.69;;;-3.82;83.73
80149;BME280;69473;42.426;26.644;2024-01-15T04:05:32;98535.16;;;-3.82;83.90
80149;BME280;69473;42.426;26.644;2024-01-15T04:07:57;98532.41;;;-3.86;83.29
80149;BME280;69473;42.426;26.644;2024-01-15T04:10:23;98528.81;;;-3.91;83.46
80149;BME280;69473;42.426;26.644;2024-01-15T04:12:49;98528.81;;;-3.91;83.21
80149;BME280;69473;42.426;26.644;2024-01-15T04:15:15;98528.66;;;-3.95;82.88
80149;BME280;69473;42.426;26.644;2024-01-15T04:17:40;98527.84;;;-3.93;82.58
80149;BME280;69473;42.426;26.644;2024-01-15T04:20:07;98528.66;;;-3.95;82.07
80149;BME280;69473;42.426;26.644;2024-01-15T04:22:34;98537.06;;;-3.96;82.89
80149;BME280;69473;42.426;26.644;2024-01-15T04:25:00;98539.75;;;-3.92;82.79
80149;BME280;69473;42.426;26.644;2024-01-15T04:27:26;98545.53;;;-3.95;82.74
80149;BME280;69473;42.426;26.644;2024-01-15T04:29:51;98548.63;;;-4.01;83.29
80149;BME280;69473;42.426;26.644;2024-01-15T04:32:17;98550.88;;;-4.07;82.43
80149;BME280;69473;42.426;26.644;2024-01-15T04:34:42;98555.63;;;-4.13;82.64
80149;BME280;69473;42.426;26.644;2024-01-15T04:37:08;98553.09;;;-4.13;82.44
80149;BME280;69473;42.426;26.644;2024-01-15T04:39:33;98555.34;;;-4.19;82.01
80149;BME280;69473;42.426;26.644;2024-01-15T04:41:59;98556.19;;;-4.19;82.40
80149;BME280;69473;42.426;26.644;2024-01-15T04:44:24;98555.47;;;-4.16;83.29
80149;BME280;69473;42.426;26.644;2024-01-15T04:46:50;98559.59;;;-4.18;83.41
80149;BME280;69473;42.426;26.644;2024-01-15T04:49:16;98562.94;;;-4.19;83.25
80149;BME280;69473;42.426;26.644;2024-01-15T04:51:41;98558.00;;;-4.16;83.70
80149;BME280;69473;42.426;26.644;2024-01-15T04:54:07;98556.28;;;-4.17;83.11
80149;BME280;69473;42.426;26.644;2024-01-15T04:56:32;98544.25;;;-4.21;83.20
80149;BME280;69473;42.426;26.644;2024-01-15T04:58:58;98546.75;;;-4.23;83.09
80149;BME280;69473;42.426;26.644;2024-01-15T05:01:23;98553.31;;;-4.26;83.33
80149;BME280;69473;42.426;26.644;2024-01-15T05:03:49;98549.03;;;-4.27;83.15
80149;BME280;69473;42.426;26.644;2024-01-15T05:06:15;98545.59;;;-4.29;83.53
80149;BME280;69473;42.426;26.644;2024-01-15T05:08:41;98547.16;;;-4.31;83.45
80149;BME280;69473;42.426;26.644;2024-01-15T05:11:06;98537.47;;;-4.22;84.08
80149;BME280;69473;42.426;26.644;2024-01-15T05:13:32;98538.06;;;-4.10;84.92
80149;BME280;69473;42.426;26.644;2024-01-15T05:15:57;98534.59;;;-4.12;85.39
80149;BME280;69473;42.426;26.644;2024-01-15T05:18:23;98538.06;;;-4.10;85.63
80149;BME280;69473;42.426;26.644;2024-01-15T05:20:49;98530.38;;;-4.11;85.07
80149;BME280;69473;42.426;26.644;2024-01-15T05:23:14;98534.00;;;-4.06;85.66
80149;BME280;69473;42.426;26.644;2024-01-15T05:25:40;98526.22;;;-4.11;85.07
80149;BME280;69473;42.426;26.644;2024-01-15T05:28:05;98522.38;;;-4.03;85.65
80149;BME280;69473;42.426;26.644;2024-01-15T05:30:31;98518.31;;;-3.99;84.72
80149;BME280;69473;42.426;26.644;2024-01-15T05:32:56;98518.25;;;-4.01;84.48
80149;BME280;69473;42.426;26.644;2024-01-15T05:35:23;98512.91;;;-4.07;84.10
80149;BME280;69473;42.426;26.644;2024-01-15T05:37:49;98509.56;;;-4.06;83.36
80149;BME280;69473;42.426;26.644;2024-01-15T05:40:14;98511.03;;;-4.11;83.19
80149;BME280;69473;42.426;26.644;2024-01-15T05:42:41;98499.31;;;-4.09;82.70
80149;BME280;69473;42.426;26.644;2024-01-15T05:45:07;98500.59;;;-3.99;83.41
80149;BME280;69473;42.426;26.644;2024-01-15T05:47:33;98488.16;;;-3.95;83.64
80149;BME280;69473;42.426;26.644;2024-01-15T05:50:00;98498.28;;;-3.95;83.53
80149;BME280;69473;42.426;26.644;2024-01-15T05:52:26;98498.56;;;-3.88;84.28
80149;BME280;69473;42.426;26.644;2024-01-15T05:54:52;98496.38;;;-3.81;84.10
80149;BME280;69473;42.426;26.644;2024-01-15T05:57:17;98493.53;;;-3.69;84.89
80149;BME280;69473;42.426;26.644;2024-01-15T05:59:44;98491.97;;;-3.47;84.27
80149;BME280;69473;42.426;26.644;2024-01-15T06:02:10;98490.78;;;-3.36;84.33
80149;BME280;69473;42.426;26.644;2024-01-15T06:04:36;98501.81;;;-3.15;83.89
80149;BME280;69473;42.426;26.644;2024-01-15T06:07:01;98495.81;;;-2.97;83.19
80149;BME280;69473;42.426;26.644;2024-01-15T06:09:27;98482.97;;;-2.81;82.83
80149;BME280;69473;42.426;26.644;2024-01-15T06:11:54;98486.97;;;-2.67;82.79
80149;BME280;69473;42.426;26.644;2024-01-15T06:14:19;98487.13;;;-2.62;82.59
80149;BME280;69473;42.426;26.644;2024-01-15T06:16:45;98490.78;;;-2.56;82.85
80149;BME280;69473;42.426;26.644;2024-01-15T06:19:10;98491.16;;;-2.46;83.25
80149;BME280;69473;42.426;26.644;2024-01-15T06:21:36;98493.91;;;-2.42;83.29
80149;BME280;69473;42.426;26.644;2024-01-15T06:24:01;98496.47;;;-2.40;83.22
80149;BME280;69473;42.426;26.644;2024-01-15T06:26:27;98500.19;;;-2.32;82.98
80149;BME280;69473;42.426;26.644;2024-01-15T06:28:53;98493.00;;;-2.21;83.26
80149;BME280;69473;42.426;26.644;2024-01-15T06:31:18;98496.69;;;-2.15;83.40
80149;BME280;69473;42.426;26.644;2024-01-15T06:33:44;98501.19;;;-2.07;83.73
80149;BME280;69473;42.426;26.644;2024-01-15T06:36:12;98504.13;;;-1.97;83.43
80149;BME280;69473;42.426;26.644;2024-01-15T06:38:38;98509.63;;;-1.86;83.11
80149;BME280;69473;42.426;26.644;2024-01-15T06:41:03;98513.38;;;-1.76;83.32
80149;BME280;69473;42.426;26.644;2024-01-15T06:43:29;98523.16;;;-1.65;82.25
80149;BME280;69473;42.426;26.644;2024-01-15T06:45:54;98531.22;;;-1.52;82.45
80149;BME280;69473;42.426;26.644;2024-01-15T06:48:20;98524.16;;;-1.37;81.79
80149;BME280;69473;42.426;26.644;2024-01-15T06:50:46;98526.56;;;-1.18;81.10
80149;BME280;69473;42.426;26.644;2024-01-15T06:53:11;98511.03;;;-1.01;79.73
80149;BME280;69473;42.426;26.644;2024-01-15T06:55:38;98519.09;;;-0.89;80.12
80149;BME280;69473;42.426;26.644;2024-01-15T06:58:04;98516.03;;;-0.79;80.13
80149;BME280;69473;42.426;26.644;2024-01-15T07:00:30;98507.50;;;-0.81;79.77
80149;BME280;69473;42.426;26.644;2024-01-15T07:02:55;98515.06;;;-0.82;79.74
80149;BME280;69473;42.426;26.644;2024-01-15T07:05:21;98510.38;;;-0.72;79.92
80149;BME280;69473;42.426;26.644;2024-01-15T07:07:46;98508.81;;;-0.41;79.49
80149;BME280;69473;42.426;26.644;2024-01-15T07:10:13;98502.81;;;0.10;78.98
80149;BME280;69473;42.426;26.644;2024-01-15T07:12:38;98494.41;;;0.41;77.83
80149;BME280;69473;42.426;26.644;2024-01-15T07:15:05;98491.41;;;0.86;75.68
80149;BME280;69473;42.426;26.644;2024-01-15T07:17:33;98484.59;;;1.17;76.48
80149;BME280;69473;42.426;26.644;2024-01-15T07:19:58;98473.88;;;1.65;74.14
80149;BME280;69473;42.426;26.644;2024-01-15T07:22:24;98469.75;;;2.07;73.11
80149;BME280;69473;42.426;26.644;2024-01-15T07:24:49;98462.19;;;2.51;71.53
80149;BME280;69473;42.426;26.644;2024-01-15T07:27:15;98462.81;;;3.29;69.38
80149;BME280;69473;42.426;26.644;2024-01-15T07:29:41;98467.03;;;4.36;65.83
80149;BME280;69473;42.426;26.644;2024-01-15T07:32:08;98456.00;;;5.15;62.97
80149;BME280;69473;42.426;26.644;2024-01-15T07:34:34;98458.09;;;5.59;59.83
80149;BME280;69473;42.426;26.644;2024-01-15T07:37:00;98459.50;;;6.32;57.54
80149;BME280;69473;42.426;26.644;2024-01-15T07:39:25;98450.38;;;7.01;55.01
80149;BME280;69473;42.426;26.644;2024-01-15T07:41:52;98450.44;;;7.75;53.28
80149;BME280;69473;42.426;26.644;2024-01-15T07:44:17;98441.28;;;9.41;48.69
80149;BME280;69473;42.426;26.644;2024-01-15T07:46:46;98430.97;;;11.05;45.71
80149;BME280;69473;42.426;26.644;2024-01-15T07:49:12;98436.09;;;11.11;44.55
80149;BME280;69473;42.426;26.644;2024-01-15T07:51:38;98439.50;;;12.69;42.60
80149;BME280;69473;42.426;26.644;2024-01-15T07:54:06;98430.50;;;14.65;36.66
80149;BME280;69473;42.426;26.644;2024-01-15T07:56:32;98434.38;;;16.20;33.42
80149;BME280;69473;42.426;26.644;2024-01-15T07:58:58;98443.53;;;16.32;33.10
80149;BME280;69473;42.426;26.644;2024-01-15T08:01:23;98448.00;;;16.78;33.17
80149;BME280;69473;42.426;26.644;2024-01-15T08:03:49;98441.63;;;17.09;33.07
80149;BME280;69473;42.426;26.644;2024-01-15T08:06:15;98442.09;;;16.97;30.69
80149;BME280;69473;42.426;26.644;2024-01-15T08:08:40;98438.53;;;17.45;30.46
80149;BME280;69473;42.426;26.644;2024-01-15T08:11:06;98440.34;;;17.87;30.46
80149;BME280;69473;42.426;26.644;2024-01-15T08:13:31;98446.28;;;18.33;29.43
80149;BME280;69473;42.426;26.644;2024-01-15T08:15:57;98459.16;;;18.99;28.83
80149;BME280;69473;42.426;26.644;2024-01-15T08:18:22;98458.00;;;19.42;28.79
80149;BME280;69473;42.426;26.644;2024-01-15T08:20:48;98455.84;;;20.23;26.62
80149;BME280;69473;42.426;26.644;2024-01-15T08:23:14;98448.25;;;19.63;27.01
80149;BME280;69473;42.426;26.644;2024-01-15T08:25:40;98443.25;;;19.39;27.98
80149;BME280;69473;42.426;26.644;2024-01-15T08:28:05;98440.13;;;19.12;28.43
80149;BME280;69473;42.426;26.644;2024-01-15T08:30:31;98442.81;;;18.92;28.40
80149;BME280;69473;42.426;26.644;2024-01-15T08:32:56;98436.78;;;19.83;27.70
80149;BME280;69473;42.426;26.644;2024-01-15T08:35:22;98447.63;;;20.12;27.08
80149;BME280;69473;42.426;26.644;2024-01-15T08:37:51;98448.78;;;19.14;28.36
80149;BME280;69473;42.426;26.644;2024-01-15T08:40:17;98429.84;;;18.68;28.93
80149;BME280;69473;42.426;26.644;2024-01-15T08:42:43;98442.53;;;18.98;29.07
80149;BME280;69473;42.426;26.644;2024-01-15T08:45:09;98436.56;;;18.76;29.25
80149;BME280;69473;42.426;26.644;2024-01-15T08:47:35;98429.06;;;19.80;27.88
80149;BME280;69473;42.426;26.644;2024-01-15T08:50:01;98432.78;;;19.93;27.32
80149;BME280;69473;42.426;26.644;2024-01-15T08:52:29;98426.63;;;18.22;29.25
80149;BME280;69473;42.426;26.644;2024-01-15T08:54:56;98435.56;;;16.10;32.32
80149;BME280;69473;42.426;26.644;2024-01-15T08:57:22;98430.25;;;14.74;34.44
80149;BME280;69473;42.426;26.644;2024-01-15T08:59:47;98436.72;;;13.17;37.66
80149;BME280;69473;42.426;26.644;2024-01-15T09:02:13;98455.13;;;12.21;40.34
80149;BME280;69473;42.426;26.644;2024-01-15T09:04:39;98431.38;;;10.74;41.78
80149;BME280;69473;42.426;26.644;2024-01-15T09:07:05;98426.06;;;8.92;45.39
80149;BME280;69473;42.426;26.644;2024-01-15T09:09:30;98414.34;;;7.59;50.04
80149;BME280;69473;42.426;26.644;2024-01-15T09:11:56;98415.13;;;8.23;50.23
80149;BME280;69473;42.426;26.644;2024-01-15T09:14:21;98399.00;;;10.39;45.44
80149;BME280;69473;42.426;26.644;2024-01-15T09:16:49;98385.31;;;10.25;45.63
80149;BME280;69473;42.426;26.644;2024-01-15T09:19:15;98371.00;;;10.69;44.23
80149;BME280;69473;42.426;26.644;2024-01-15T09:21:40;98368.28;;;10.77;43.88
80149;BME280;69473;42.426;26.644;2024-01-15T09:24:06;98364.13;;;12.28;42.43
80149;BME280;69473;42.426;26.644;2024-01-15T09:26:32;98362.25;;;13.52;38.94
80149;BME280;69473;42.426;26.644;2024-01-15T09:28:57;98355.09;;;15.69;35.91
80149;BME280;69473;42.426;26.644;2024-01-15T09:31:23;98344.59;;;19.15;31.12
80149;BME280;69473;42.426;26.644;2024-01-15T09:33:49;98345.09;;;19.94;28.77
80149;BME280;69473;42.426;26.644;2024-01-15T09:36:17;98346.34;;;19.70;28.14
80149;BME280;69473;42.426;26.644;2024-01-15T09:38:43;98345.44;;;19.15;29.36
80149;BME280;69473;42.426;26.644;2024-01-15T09:41:09;98346.59;;;19.46;28.73
80149;BME280;69473;42.426;26.644;2024-01-15T09:43:36;98346.78;;;19.95;27.82
80149;BME280;69473;42.426;26.644;2024-01-15T09:46:03;98341.06;;;19.87;27.63
80149;BME280;69473;42.426;26.644;2024-01-15T09:48:29;98351.25;;;20.11;27.63
80149;BME280;69473;42.426;26.644;2024-01-15T09:50:56;98329.78;;;20.69;27.82
80149;BME280;69473;42.426;26.644;2024-01-15T09:53:25;98325.06;;;19.57;28.58
80149;BME280;69473;42.426;26.644;2024-01-15T09:55:52;98321.13;;;17.12;31.80
80149;BME280;69473;42.426;26.644;2024-01-15T09:58:18;98334.94;;;13.33;38.52
80149;BME280;69473;42.426;26.644;2024-01-15T10:00:47;98340.16;;;10.49;44.69
80149;BME280;69473;42.426;26.644;2024-01-15T10:03:15;98339.84;;;9.06;47.88
80149;BME280;69473;42.426;26.644;2024-01-15T10:05:40;98333.28;;;8.55;51.02
80149;BME280;69473;42.426;26.644;2024-01-15T10:08:06;98324.78;;;8.29;50.09
80149;BME280;69473;42.426;26.644;2024-01-15T10:10:32;98309.69;;;9.99;47.06
80149;BME280;69473;42.426;26.644;2024-01-15T10:12:58;98301.91;;;10.68;45.33
80149;BME280;69473;42.426;26.644;2024-01-15T10:15:28;98308.59;;;10.84;43.62
80149;BME280;69473;42.426;26.644;2024-01-15T10:17:54;98304.91;;;10.40;46.00
80149;BME280;69473;42.426;26.644;2024-01-15T10:20:20;98305.06;;;10.25;46.54
80149;BME280;69473;42.426;26.644;2024-01-15T10:22:47;98302.47;;;10.25;45.65
80149;BME280;69473;42.426;26.644;2024-01-15T10:25:13;98311.09;;;9.47;47.34
80149;BME280;69473;42.426;26.644;2024-01-15T10:27:43;98309.13;;;8.60;51.18
80149;BME280;69473;42.426;26.644;2024-01-15T10:30:10;98311.09;;;8.05;52.68
80149;BME280;69473;42.426;26.644;2024-01-15T10:32:35;98311.25;;;7.26;55.70
80149;BME280;69473;42.426;26.644;2024-01-15T10:35:01;98305.25;;;7.17;57.17
80149;BME280;69473;42.426;26.644;2024-01-15T10:37:27;98293.22;;;7.39;56.01
80149;BME280;69473;42.426;26.644;2024-01-15T10:39:53;98294.06;;;7.46;54.91
80149;BME280;69473;42.426;26.644;2024-01-15T10:42:18;98288.72;;;8.10;52.89
80149;BME280;69473;42.426;26.644;2024-01-15T10:44:44;98276.16;;;8.98;50.41
80149;BME280;69473;42.426;26.644;2024-01-15T10:47:12;98266.22;;;9.49;49.14
80149;BME280;69473;42.426;26.644;2024-01-15T10:49:39;98265.75;;;10.59;46.25
80149;BME280;69473;42.426;26.644;2024-01-15T10:52:05;98263.59;;;11.41;43.68
80149;BME280;69473;42.426;26.644;2024-01-15T10:54:32;98270.63;;;9.41;47.21
80149;BME280;69473;42.426;26.644;2024-01-15T10:56:58;98258.91;;;9.87;47.05
80149;BME280;69473;42.426;26.644;2024-01-15T10:59:24;98239.50;;;10.23;45.68
80149;BME280;69473;42.426;26.644;2024-01-15T11:01:51;98230.59;;;11.00;44.08
80149;BME280;69473;42.426;26.644;2024-01-15T11:04:21;98226.34;;;12.32;40.19
80149;BME280;69473;42.426;26.644;2024-01-15T11:06:51;98230.72;;;11.42;41.61
80149;BME280;69473;42.426;26.644;2024-01-15T11:09:18;98230.22;;;10.07;45.29
80149;BME280;69473;42.426;26.644;2024-01-15T11:11:46;98224.25;;;9.26;47.15
80149;BME280;69473;42.426;26.644;2024-01-15T11:14:40;98229.91;;;8.65;48.06
80149;BME280;69473;42.426;26.644;2024-01-15T11:17:09;98234.06;;;9.75;46.39
80149;BME280;69473;42.426;26.644;2024-01-15T11:19:46;98221.50;;;10.14;44.59
80149;BME280;69473;42.426;26.644;2024-01-15T11:24:58;98216.84;;;10.40;43.57
80149;BME280;69473;42.426;26.644;2024-01-15T11:27:43;98216.63;;;9.89;44.57
80149;BME280;69473;42.426;26.644;2024-01-15T11:30:11;98216.41;;;9.31;47.00
80149;BME280;69473;42.426;26.644;2024-01-15T11:32:38;98221.13;;;8.87;47.26
80149;BME280;69473;42.426;26.644;2024-01-15T11:35:07;98219.59;;;8.65;47.07
80149;BME280;69473;42.426;26.644;2024-01-15T11:43:02;98203.44;;;10.68;44.62
80149;BME280;69473;42.426;26.644;2024-01-15T11:45:30;98196.56;;;10.67;43.49
80149;BME280;69473;42.426;26.644;2024-01-15T11:50:30;98187.56;;;9.69;46.85
80149;BME280;69473;42.426;26.644;2024-01-15T11:53:03;98180.50;;;9.05;49.64
80149;BME280;69473;42.426;26.644;2024-01-15T11:55:38;98182.72;;;9.41;47.71
80149;BME280;69473;42.426;26.644;2024-01-15T11:58:09;98168.50;;;9.75;48.14
80149;BME280;69473;42.426;26.644;2024-01-15T12:00:42;98162.53;;;8.92;50.13
80149;BME280;69473;42.426;26.644;2024-01-15T12:03:09;98167.09;;;8.64;49.78
80149;BME280;69473;42.426;26.644;2024-01-15T12:05:37;98164.66;;;10.05;48.43
80149;BME280;69473;42.426;26.644;2024-01-15T12:08:03;98157.50;;;11.71;43.89
80149;BME280;69473;42.426;26.644;2024-01-15T12:10:33;98147.59;;;16.24;35.73
80149;BME280;69473;42.426;26.644;2024-01-15T12:13:11;98140.31;;;17.76;31.07
80149;BME280;69473;42.426;26.644;2024-01-15T12:15:37;98141.81;;;17.43;32.80
80149;BME280;69473;42.426;26.644;2024-01-15T12:18:12;98141.34;;;15.09;34.99
80149;BME280;69473;42.426;26.644;2024-01-15T12:20:39;98145.88;;;14.50;37.11
80149;BME280;69473;42.426;26.644;2024-01-15T12:23:05;98146.59;;;13.70;38.26
80149;BME280;69473;42.426;26.644;2024-01-15T12:25:32;98145.50;;;13.47;38.72
80149;BME280;69473;42.426;26.644;2024-01-15T12:28:00;98147.69;;;13.61;38.53
80149;BME280;69473;42.426;26.644;2024-01-15T12:30:30;98151.81;;;11.52;42.56
80149;BME280;69473;42.426;26.644;2024-01-15T12:33:08;98159.22;;;10.23;44.31
80149;BME280;69473;42.426;26.644;2024-01-15T12:35:34;98160.16;;;9.53;47.08
80149;BME280;69473;42.426;26.644;2024-01-15T12:38:01;98163.94;;;9.24;46.49
80149;BME280;69473;42.426;26.644;2024-01-15T12:40:31;98157.22;;;9.08;47.47
80149;BME280;69473;42.426;26.644;2024-01-15T12:42:58;98159.13;;;8.87;49.20
80149;BME280;69473;42.426;26.644;2024-01-15T12:45:23;98160.41;;;8.36;49.91
80149;BME280;69473;42.426;26.644;2024-01-15T12:47:49;98158.75;;;8.22;48.66
80149;BME280;69473;42.426;26.644;2024-01-15T12:50:16;98147.72;;;8.00;50.85
80149;BME280;69473;42.426;26.644;2024-01-15T12:52:42;98154.59;;;8.01;51.72
80149;BME280;69473;42.426;26.644;2024-01-15T12:55:09;98149.22;;;8.41;51.42
80149;BME280;69473;42.426;26.644;2024-01-15T12:57:36;98146.44;;;8.63;49.84
80149;BME280;69473;42.426;26.644;2024-01-15T13:00:03;98142.19;;;8.55;50.31